sensor_id;sensor_type;location;lat;lon;timestamp;P1;durP1;ratioP1;P2;durP2;ratioP2
34204;SDS011;20471;49.680;20.074;2023-02-15T00:00:13;137.40;;;72.80;;
34204;SDS011;20471;49.680;20.074;2023-02-15T00:03:01;144.80;;;73.80;;
34204;SDS011;20471;49.680;20.074;2023-02-15T00:05:30;141.10;;;76.40;;
34204;SDS011;20471;49.680;20.074;2023-02-15T00:07:59;154.90;;;84.00;;
34204;SDS011;20471;49.680;20.074;2023-02-15T00:10:27;169.90;;;87.00;;
34204;SDS011;20471;49.680;20.074;2023-02-15T00:12:55;152.30;;;84.00;;
34204;SDS011;20471;49.680;20.074;2023-02-15T00:15:23;150.90;;;84.80;;
34204;SDS011;20471;49.680;20.074;2023-02-15T00:17:52;157.40;;;85.40;;
34204;SDS011;20471;49.680;20.074;2023-02-15T00:20:20;161.30;;;85.00;;
34204;SDS011;20471;49.680;20.074;2023-02-15T00:22:49;150.30;;;81.90;;
34204;SDS011;20471;49.680;20.074;2023-02-15T00:25:17;148.00;;;78.60;;
34204;SDS011;20471;49.680;20.074;2023-02-15T00:27:45;132.30;;;70.70;;
34204;SDS011;20471;49.680;20.074;2023-02-15T00:30:14;125.80;;;67.60;;
34204;SDS011;20471;49.680;20.074;2023-02-15T00:32:42;132.00;;;69.50;;
34204;SDS011;20471;49.680;20.074;2023-02-15T00:35:10;133.10;;;71.40;;
34204;SDS011;20471;49.680;20.074;2023-02-15T00:37:38;151.50;;;76.70;;
34204;SDS011;20471;49.680;20.074;2023-02-15T00:40:06;141.90;;;74.40;;
34204;SDS011;20471;49.680;20.074;2023-02-15T00:42:35;142.40;;;75.50;;
34204;SDS011;20471;49.680;20.074;2023-02-15T00:45:03;135.90;;;73.60;;
34204;SDS011;20471;49.680;20.074;2023-02-15T00:47:32;135.10;;;74.60;;
34204;SDS011;20471;49.680;20.074;2023-02-15T00:50:00;134.20;;;74.30;;
34204;SDS011;20471;49.680;20.074;2023-02-15T00:52:29;138.40;;;74.50;;
34204;SDS011;20471;49.680;20.074;2023-02-15T00:54:57;139.50;;;75.90;;
34204;SDS011;20471;49.680;20.074;2023-02-15T00:57:26;137.70;;;72.80;;
34204;SDS011;20471;49.680;20.074;2023-02-15T00:59:54;133.60;;;73.90;;
34204;SDS011;20471;49.680;20.074;2023-02-15T01:02:22;134.50;;;72.10;;
34204;SDS011;20471;49.680;20.074;2023-02-15T01:04:50;134.40;;;70.20;;
34204;SDS011;20471;49.680;20.074;2023-02-15T01:07:19;125.30;;;69.40;;
34204;SDS011;20471;49.680;20.074;2023-02-15T01:09:47;132.90;;;73.10;;
34204;SDS011;20471;49.680;20.074;2023-02-15T01:12:15;121.50;;;66.90;;
34204;SDS011;20471;49.680;20.074;2023-02-15T01:14:43;129.20;;;70.30;;
34204;SDS011;20471;49.680;20.074;2023-02-15T01:17:11;126.60;;;69.60;;
34204;SDS011;20471;49.680;20.074;2023-02-15T01:19:39;128.40;;;70.20;;
34204;SDS011;20471;49.680;20.074;2023-02-15T01:22:07;129.10;;;69.20;;
34204;SDS011;20471;49.680;20.074;2023-02-15T01:24:36;113.40;;;65.20;;
34204;SDS011;20471;49.680;20.074;2023-02-15T01:27:04;120.20;;;67.90;;
34204;SDS011;20471;49.680;20.074;2023-02-15T01:29:32;128.00;;;70.70;;
34204;SDS011;20471;49.680;20.074;2023-02-15T01:32:00;129.40;;;69.80;;
34204;SDS011;20471;49.680;20.074;2023-02-15T01:34:29;123.40;;;69.30;;
34204;SDS011;20471;49.680;20.074;2023-02-15T01:36:58;126.60;;;69.90;;
34204;SDS011;20471;49.680;20.074;2023-02-15T01:39:26;125.30;;;69.50;;
34204;SDS011;20471;49.680;20.074;2023-02-15T01:41:54;137.90;;;71.60;;
34204;SDS011;20471;49.680;20.074;2023-02-15T01:47:12;129.20;;;70.40;;
34204;SDS011;20471;49.680;20.074;2023-02-15T01:52:33;119.90;;;67.50;;
34204;SDS011;20471;49.680;20.074;2023-02-15T01:55:05;122.30;;;66.60;;
34204;SDS011;20471;49.680;20.074;2023-02-15T01:57:35;117.00;;;66.40;;
34204;SDS011;20471;49.680;20.074;2023-02-15T02:00:04;118.40;;;66.00;;
34204;SDS011;20471;49.680;20.074;2023-02-15T02:02:55;109.80;;;60.60;;
34204;SDS011;20471;49.680;20.074;2023-02-15T02:05:24;97.00;;;56.30;;
34204;SDS011;20471;49.680;20.074;2023-02-15T02:07:54;99.10;;;56.50;;
34204;SDS011;20471;49.680;20.074;2023-02-15T02:10:26;90.60;;;53.00;;
34204;SDS011;20471;49.680;20.074;2023-02-15T02:12:58;92.60;;;53.40;;
34204;SDS011;20471;49.680;20.074;2023-02-15T02:18:41;89.50;;;47.90;;
34204;SDS011;20471;49.680;20.074;2023-02-15T02:27:28;65.20;;;37.70;;
34204;SDS011;20471;49.680;20.074;2023-02-15T02:41:28;27.50;;;19.60;;
34204;SDS011;20471;49.680;20.074;2023-02-15T02:46:48;26.60;;;17.60;;
34204;SDS011;20471;49.680;20.074;2023-02-15T02:49:30;23.60;;;16.20;;
34204;SDS011;20471;49.680;20.074;2023-02-15T02:52:00;24.30;;;17.70;;
34204;SDS011;20471;49.680;20.074;2023-02-15T02:54:29;25.20;;;17.40;;
34204;SDS011;20471;49.680;20.074;2023-02-15T02:57:00;25.40;;;17.50;;
34204;SDS011;20471;49.680;20.074;2023-02-15T02:59:33;29.00;;;18.10;;
34204;SDS011;20471;49.680;20.074;2023-02-15T03:04:40;30.20;;;20.30;;
34204;SDS011;20471;49.680;20.074;2023-02-15T03:07:17;33.10;;;20.90;;
34204;SDS011;20471;49.680;20.074;2023-02-15T03:09:50;26.60;;;17.40;;
34204;SDS011;20471;49.680;20.074;2023-02-15T03:12:21;27.00;;;18.10;;
34204;SDS011;20471;49.680;20.074;2023-02-15T03:17:40;32.10;;;19.30;;
34204;SDS011;20471;49.680;20.074;2023-02-15T03:20:15;29.40;;;19.60;;
34204;SDS011;20471;49.680;20.074;2023-02-15T03:23:08;27.60;;;19.10;;
34204;SDS011;20471;49.680;20.074;2023-02-15T03:25:41;31.90;;;21.50;;
34204;SDS011;20471;49.680;20.074;2023-02-15T03:28:13;31.60;;;20.40;;
34204;SDS011;20471;49.680;20.074;2023-02-15T03:30:48;31.50;;;19.40;;
34204;SDS011;20471;49.680;20.074;2023-02-15T03:33:21;29.40;;;19.00;;
34204;SDS011;20471;49.680;20.074;2023-02-15T03:36:11;31.10;;;20.80;;
34204;SDS011;20471;49.680;20.074;2023-02-15T03:41:31;36.30;;;22.30;;
34204;SDS011;20471;49.680;20.074;2023-02-15T03:44:04;35.90;;;23.00;;
34204;SDS011;20471;49.680;20.074;2023-02-15T03:46:47;41.90;;;24.10;;
34204;SDS011;20471;49.680;20.074;2023-02-15T03:49:25;36.10;;;22.90;;
34204;SDS011;20471;49.680;20.074;2023-02-15T03:52:01;40.10;;;25.20;;
34204;SDS011;20471;49.680;20.074;2023-02-15T03:54:32;48.50;;;28.60;;
34204;SDS011;20471;49.680;20.074;2023-02-15T03:57:19;44.70;;;25.80;;
34204;SDS011;20471;49.680;20.074;2023-02-15T04:00:15;40.30;;;25.40;;
34204;SDS011;20471;49.680;20.074;2023-02-15T04:05:41;40.90;;;25.30;;
34204;SDS011;20471;49.680;20.074;2023-02-15T04:08:10;39.00;;;25.10;;
34204;SDS011;20471;49.680;20.074;2023-02-15T04:10:40;39.20;;;25.40;;
34204;SDS011;20471;49.680;20.074;2023-02-15T04:13:22;41.70;;;26.00;;
34204;SDS011;20471;49.680;20.074;2023-02-15T04:15:53;40.50;;;25.30;;
34204;SDS011;20471;49.680;20.074;2023-02-15T04:18:31;37.50;;;24.70;;
34204;SDS011;20471;49.680;20.074;2023-02-15T04:21:18;40.30;;;26.00;;
34204;SDS011;20471;49.680;20.074;2023-02-15T04:24:05;33.30;;;22.60;;
34204;SDS011;20471;49.680;20.074;2023-02-15T04:26:50;38.10;;;23.20;;
34204;SDS011;20471;49.680;20.074;2023-02-15T04:29:20;32.60;;;21.60;;
34204;SDS011;20471;49.680;20.074;2023-02-15T04:31:50;33.30;;;22.50;;
34204;SDS011;20471;49.680;20.074;2023-02-15T04:34:20;33.50;;;21.80;;
34204;SDS011;20471;49.680;20.074;2023-02-15T04:36:48;35.00;;;23.70;;
34204;SDS011;20471;49.680;20.074;2023-02-15T04:39:17;37.10;;;23.60;;
34204;SDS011;20471;49.680;20.074;2023-02-15T04:41:46;36.80;;;23.30;;
34204;SDS011;20471;49.680;20.074;2023-02-15T04:44:14;39.40;;;23.80;;
34204;SDS011;20471;49.680;20.074;2023-02-15T04:46:43;40.10;;;24.40;;
34204;SDS011;20471;49.680;20.074;2023-02-15T04:49:11;41.50;;;24.30;;
34204;SDS011;20471;49.680;20.074;2023-02-15T04:51:39;39.50;;;24.00;;
34204;SDS011;20471;49.680;20.074;2023-02-15T04:54:07;38.90;;;21.80;;
34204;SDS011;20471;49.680;20.074;2023-02-15T04:56:35;39.30;;;22.30;;
34204;SDS011;20471;49.680;20.074;2023-02-15T04:59:05;32.90;;;21.20;;
34204;SDS011;20471;49.680;20.074;2023-02-15T05:01:33;32.00;;;21.60;;
34204;SDS011;20471;49.680;20.074;2023-02-15T05:04:01;36.80;;;25.00;;
34204;SDS011;20471;49.680;20.074;2023-02-15T05:06:30;45.00;;;27.60;;
34204;SDS011;20471;49.680;20.074;2023-02-15T05:08:58;43.60;;;26.70;;
34204;SDS011;20471;49.680;20.074;2023-02-15T05:11:27;40.90;;;24.30;;
34204;SDS011;20471;49.680;20.074;2023-02-15T05:13:55;33.70;;;21.20;;
34204;SDS011;20471;49.680;20.074;2023-02-15T05:16:23;38.50;;;21.80;;
34204;SDS011;20471;49.680;20.074;2023-02-15T05:18:54;36.10;;;23.00;;
34204;SDS011;20471;49.680;20.074;2023-02-15T05:21:22;31.30;;;20.60;;
34204;SDS011;20471;49.680;20.074;2023-02-15T05:23:50;32.40;;;20.30;;
34204;SDS011;20471;49.680;20.074;2023-02-15T05:26:21;32.60;;;21.20;;
34204;SDS011;20471;49.680;20.074;2023-02-15T05:29:08;29.10;;;20.10;;
34204;SDS011;20471;49.680;20.074;2023-02-15T05:31:37;35.20;;;22.20;;
34204;SDS011;20471;49.680;20.074;2023-02-15T05:34:05;43.60;;;25.20;;
34204;SDS011;20471;49.680;20.074;2023-02-15T05:36:34;43.70;;;25.50;;
34204;SDS011;20471;49.680;20.074;2023-02-15T05:39:02;42.90;;;27.20;;
34204;SDS011;20471;49.680;20.074;2023-02-15T05:41:32;48.60;;;28.10;;
34204;SDS011;20471;49.680;20.074;2023-02-15T05:44:00;40.70;;;26.20;;
34204;SDS011;20471;49.680;20.074;2023-02-15T05:46:28;44.10;;;27.20;;
34204;SDS011;20471;49.680;20.074;2023-02-15T05:48:56;40.60;;;26.40;;
34204;SDS011;20471;49.680;20.074;2023-02-15T05:51:24;43.60;;;25.30;;
34204;SDS011;20471;49.680;20.074;2023-02-15T05:53:52;40.40;;;23.50;;
34204;SDS011;20471;49.680;20.074;2023-02-15T05:56:21;41.90;;;25.40;;
34204;SDS011;20471;49.680;20.074;2023-02-15T05:58:49;36.00;;;24.00;;
34204;SDS011;20471;49.680;20.074;2023-02-15T06:01:20;36.10;;;22.40;;
34204;SDS011;20471;49.680;20.074;2023-02-15T06:03:49;36.70;;;22.80;;
34204;SDS011;20471;49.680;20.074;2023-02-15T06:06:18;33.30;;;19.70;;
34204;SDS011;20471;49.680;20.074;2023-02-15T06:08:46;29.30;;;18.00;;
34204;SDS011;20471;49.680;20.074;2023-02-15T06:11:14;27.70;;;17.90;;
34204;SDS011;20471;49.680;20.074;2023-02-15T06:13:42;23.80;;;16.60;;
34204;SDS011;20471;49.680;20.074;2023-02-15T06:16:10;25.70;;;17.30;;
34204;SDS011;20471;49.680;20.074;2023-02-15T06:18:38;28.60;;;18.10;;
34204;SDS011;20471;49.680;20.074;2023-02-15T06:21:07;29.50;;;18.60;;
34204;SDS011;20471;49.680;20.074;2023-02-15T06:23:35;26.20;;;17.60;;
34204;SDS011;20471;49.680;20.074;2023-02-15T06:26:03;30.40;;;19.20;;
34204;SDS011;20471;49.680;20.074;2023-02-15T06:28:31;31.90;;;19.40;;
34204;SDS011;20471;49.680;20.074;2023-02-15T06:30:59;37.10;;;21.10;;
34204;SDS011;20471;49.680;20.074;2023-02-15T06:33:27;33.60;;;21.10;;
34204;SDS011;20471;49.680;20.074;2023-02-15T06:35:56;35.90;;;21.90;;
34204;SDS011;20471;49.680;20.074;2023-02-15T06:38:24;33.80;;;21.60;;
34204;SDS011;20471;49.680;20.074;2023-02-15T06:40:53;39.50;;;22.80;;
34204;SDS011;20471;49.680;20.074;2023-02-15T06:43:21;35.90;;;21.50;;
34204;SDS011;20471;49.680;20.074;2023-02-15T06:45:49;41.30;;;23.60;;
34204;SDS011;20471;49.680;20.074;2023-02-15T06:48:17;40.10;;;23.80;;
34204;SDS011;20471;49.680;20.074;2023-02-15T06:50:45;37.20;;;23.80;;
34204;SDS011;20471;49.680;20.074;2023-02-15T06:53:14;42.90;;;25.00;;
34204;SDS011;20471;49.680;20.074;2023-02-15T06:55:42;40.40;;;24.50;;
34204;SDS011;20471;49.680;20.074;2023-02-15T06:58:10;42.20;;;24.40;;
34204;SDS011;20471;49.680;20.074;2023-02-15T07:00:38;41.40;;;24.60;;
34204;SDS011;20471;49.680;20.074;2023-02-15T07:03:06;39.20;;;23.40;;
34204;SDS011;20471;49.680;20.074;2023-02-15T07:05:34;42.40;;;25.50;;
34204;SDS011;20471;49.680;20.074;2023-02-15T07:08:02;41.40;;;23.10;;
34204;SDS011;20471;49.680;20.074;2023-02-15T07:10:31;40.30;;;23.50;;
34204;SDS011;20471;49.680;20.074;2023-02-15T07:12:59;41.10;;;24.20;;
34204;SDS011;20471;49.680;20.074;2023-02-15T07:15:27;45.40;;;25.90;;
34204;SDS011;20471;49.680;20.074;2023-02-15T07:17:57;45.10;;;25.70;;
34204;SDS011;20471;49.680;20.074;2023-02-15T07:20:25;48.80;;;27.70;;
34204;SDS011;20471;49.680;20.074;2023-02-15T07:22:53;52.60;;;29.40;;
34204;SDS011;20471;49.680;20.074;2023-02-15T07:25:21;45.30;;;27.30;;
34204;SDS011;20471;49.680;20.074;2023-02-15T07:27:55;39.90;;;23.70;;
34204;SDS011;20471;49.680;20.074;2023-02-15T07:30:27;44.00;;;25.40;;
34204;SDS011;20471;49.680;20.074;2023-02-15T07:32:59;36.90;;;22.20;;
34204;SDS011;20471;49.680;20.074;2023-02-15T07:35:48;39.00;;;24.10;;
34204;SDS011;20471;49.680;20.074;2023-02-15T07:38:17;39.10;;;23.60;;
34204;SDS011;20471;49.680;20.074;2023-02-15T07:40:46;49.80;;;28.50;;
34204;SDS011;20471;49.680;20.074;2023-02-15T07:43:14;32.50;;;19.30;;
34204;SDS011;20471;49.680;20.074;2023-02-15T07:45:43;32.80;;;19.60;;
34204;SDS011;20471;49.680;20.074;2023-02-15T07:48:11;33.20;;;20.60;;
34204;SDS011;20471;49.680;20.074;2023-02-15T07:50:40;32.60;;;18.80;;
34204;SDS011;20471;49.680;20.074;2023-02-15T07:53:08;36.60;;;21.00;;
34204;SDS011;20471;49.680;20.074;2023-02-15T07:55:36;36.00;;;22.80;;
34204;SDS011;20471;49.680;20.074;2023-02-15T07:58:04;35.90;;;21.90;;
34204;SDS011;20471;49.680;20.074;2023-02-15T08:00:32;29.90;;;18.10;;
34204;SDS011;20471;49.680;20.074;2023-02-15T08:03:24;31.10;;;17.90;;
34204;SDS011;20471;49.680;20.074;2023-02-15T08:05:57;26.90;;;17.20;;
34204;SDS011;20471;49.680;20.074;2023-02-15T08:08:26;26.30;;;16.70;;
34204;SDS011;20471;49.680;20.074;2023-02-15T08:10:58;29.40;;;16.70;;
34204;SDS011;20471;49.680;20.074;2023-02-15T08:13:54;25.10;;;15.80;;
34204;SDS011;20471;49.680;20.074;2023-02-15T08:16:36;25.10;;;14.70;;
34204;SDS011;20471;49.680;20.074;2023-02-15T08:21:42;23.70;;;14.70;;
34204;SDS011;20471;49.680;20.074;2023-02-15T08:24:21;21.40;;;13.90;;
34204;SDS011;20471;49.680;20.074;2023-02-15T08:26:51;24.50;;;15.30;;
34204;SDS011;20471;49.680;20.074;2023-02-15T08:29:20;21.80;;;14.50;;
34204;SDS011;20471;49.680;20.074;2023-02-15T08:31:55;23.20;;;14.60;;
34204;SDS011;20471;49.680;20.074;2023-02-15T08:34:25;23.10;;;15.40;;
34204;SDS011;20471;49.680;20.074;2023-02-15T08:36:53;24.60;;;15.40;;
34204;SDS011;20471;49.680;20.074;2023-02-15T08:39:21;24.60;;;15.30;;
34204;SDS011;20471;49.680;20.074;2023-02-15T08:41:50;23.10;;;14.70;;
34204;SDS011;20471;49.680;20.074;2023-02-15T08:44:18;30.00;;;15.80;;
34204;SDS011;20471;49.680;20.074;2023-02-15T08:46:47;23.70;;;15.00;;
34204;SDS011;20471;49.680;20.074;2023-02-15T08:49:17;26.70;;;16.60;;
34204;SDS011;20471;49.680;20.074;2023-02-15T08:51:48;26.50;;;16.30;;
34204;SDS011;20471;49.680;20.074;2023-02-15T08:54:18;24.40;;;15.90;;
34204;SDS011;20471;49.680;20.074;2023-02-15T08:56:48;27.80;;;17.60;;
34204;SDS011;20471;49.680;20.074;2023-02-15T08:59:17;26.50;;;16.30;;
34204;SDS011;20471;49.680;20.074;2023-02-15T09:01:48;26.60;;;16.40;;
34204;SDS011;20471;49.680;20.074;2023-02-15T09:04:18;25.40;;;16.30;;
34204;SDS011;20471;49.680;20.074;2023-02-15T09:06:47;23.00;;;14.80;;
34204;SDS011;20471;49.680;20.074;2023-02-15T09:09:17;24.30;;;15.40;;
34204;SDS011;20471;49.680;20.074;2023-02-15T09:11:47;23.90;;;15.90;;
34204;SDS011;20471;49.680;20.074;2023-02-15T09:14:18;26.80;;;15.60;;
34204;SDS011;20471;49.680;20.074;2023-02-15T09:16:51;26.10;;;16.80;;
34204;SDS011;20471;49.680;20.074;2023-02-15T09:19:21;23.20;;;15.20;;
34204;SDS011;20471;49.680;20.074;2023-02-15T09:21:50;29.00;;;16.80;;
34204;SDS011;20471;49.680;20.074;2023-02-15T09:24:19;26.70;;;17.90;;
34204;SDS011;20471;49.680;20.074;2023-02-15T09:26:48;29.70;;;17.80;;
34204;SDS011;20471;49.680;20.074;2023-02-15T09:29:17;25.90;;;17.60;;
34204;SDS011;20471;49.680;20.074;2023-02-15T09:31:47;26.40;;;16.50;;
34204;SDS011;20471;49.680;20.074;2023-02-15T09:34:17;25.10;;;16.50;;
34204;SDS011;20471;49.680;20.074;2023-02-15T09:36:47;24.90;;;16.20;;
34204;SDS011;20471;49.680;20.074;2023-02-15T09:39:17;20.80;;;14.10;;
34204;SDS011;20471;49.680;20.074;2023-02-15T09:50:42;25.30;;;16.30;;
34204;SDS011;20471;49.680;20.074;2023-02-15T09:58:57;23.80;;;15.20;;
34204;SDS011;20471;49.680;20.074;2023-02-15T10:02:05;26.00;;;15.70;;
34204;SDS011;20471;49.680;20.074;2023-02-15T10:05:14;25.40;;;16.60;;
34204;SDS011;20471;49.680;20.074;2023-02-15T10:08:09;24.30;;;16.20;;
34204;SDS011;20471;49.680;20.074;2023-02-15T10:10:57;23.30;;;15.40;;
34204;SDS011;20471;49.680;20.074;2023-02-15T10:13:58;26.40;;;16.30;;
34204;SDS011;20471;49.680;20.074;2023-02-15T10:16:36;24.70;;;15.90;;
34204;SDS011;20471;49.680;20.074;2023-02-15T10:19:16;23.10;;;15.60;;
34204;SDS011;20471;49.680;20.074;2023-02-15T10:24:45;23.80;;;15.80;;
34204;SDS011;20471;49.680;20.074;2023-02-15T10:27:20;23.50;;;15.00;;
34204;SDS011;20471;49.680;20.074;2023-02-15T10:32:24;21.10;;;14.60;;
34204;SDS011;20471;49.680;20.074;2023-02-15T10:37:44;23.10;;;14.60;;
34204;SDS011;20471;49.680;20.074;2023-02-15T10:51:51;22.10;;;13.60;;
34204;SDS011;20471;49.680;20.074;2023-02-15T10:54:31;18.30;;;13.20;;
34204;SDS011;20471;49.680;20.074;2023-02-15T11:05:57;21.50;;;13.10;;
34204;SDS011;20471;49.680;20.074;2023-02-15T11:08:51;17.40;;;12.10;;
34204;SDS011;20471;49.680;20.074;2023-02-15T11:14:01;18.40;;;12.10;;
34204;SDS011;20471;49.680;20.074;2023-02-15T11:16:34;16.90;;;11.90;;
34204;SDS011;20471;49.680;20.074;2023-02-15T11:22:13;19.10;;;12.20;;
34204;SDS011;20471;49.680;20.074;2023-02-15T11:24:42;19.00;;;12.30;;
34204;SDS011;20471;49.680;20.074;2023-02-15T11:32:43;17.90;;;12.70;;
34204;SDS011;20471;49.680;20.074;2023-02-15T11:38:16;14.40;;;11.30;;
34204;SDS011;20471;49.680;20.074;2023-02-15T11:41:04;13.10;;;10.70;;
34204;SDS011;20471;49.680;20.074;2023-02-15T11:46:14;13.50;;;9.90;;
34204;SDS011;20471;49.680;20.074;2023-02-15T11:48:43;16.90;;;11.00;;
34204;SDS011;20471;49.680;20.074;2023-02-15T11:51:12;15.10;;;11.10;;
34204;SDS011;20471;49.680;20.074;2023-02-15T11:53:45;16.00;;;11.00;;
34204;SDS011;20471;49.680;20.074;2023-02-15T11:56:18;13.40;;;10.50;;
34204;SDS011;20471;49.680;20.074;2023-02-15T11:58:59;15.80;;;10.50;;
34204;SDS011;20471;49.680;20.074;2023-02-15T12:01:41;14.20;;;10.90;;
34204;SDS011;20471;49.680;20.074;2023-02-15T12:06:53;16.40;;;11.50;;
34204;SDS011;20471;49.680;20.074;2023-02-15T12:12:28;13.10;;;10.20;;
34204;SDS011;20471;49.680;20.074;2023-02-15T12:15:03;12.50;;;9.30;;
34204;SDS011;20471;49.680;20.074;2023-02-15T12:22:54;12.00;;;9.10;;
34204;SDS011;20471;49.680;20.074;2023-02-15T12:28:05;13.80;;;10.70;;
34204;SDS011;20471;49.680;20.074;2023-02-15T12:30:52;12.70;;;9.40;;
34204;SDS011;20471;49.680;20.074;2023-02-15T12:49:24;8.50;;;7.30;;
34204;SDS011;20471;49.680;20.074;2023-02-15T12:54:50;11.00;;;8.00;;
34204;SDS011;20471;49.680;20.074;2023-02-15T12:57:29;8.60;;;6.90;;
34204;SDS011;20471;49.680;20.074;2023-02-15T13:00:23;8.60;;;6.90;;
34204;SDS011;20471;49.680;20.074;2023-02-15T13:02:55;8.50;;;6.80;;
34204;SDS011;20471;49.680;20.074;2023-02-15T13:05:35;8.30;;;5.80;;
34204;SDS011;20471;49.680;20.074;2023-02-15T13:08:09;12.60;;;8.00;;
34204;SDS011;20471;49.680;20.074;2023-02-15T13:10:56;12.80;;;7.30;;
34204;SDS011;20471;49.680;20.074;2023-02-15T13:13:28;9.20;;;7.10;;
34204;SDS011;20471;49.680;20.074;2023-02-15T13:16:01;8.80;;;6.20;;
34204;SDS011;20471;49.680;20.074;2023-02-15T13:18:33;9.90;;;8.30;;
34204;SDS011;20471;49.680;20.074;2023-02-15T13:21:23;9.60;;;6.90;;
34204;SDS011;20471;49.680;20.074;2023-02-15T13:23:58;7.20;;;5.70;;
34204;SDS011;20471;49.680;20.074;2023-02-15T13:26:30;7.80;;;5.90;;
34204;SDS011;20471;49.680;20.074;2023-02-15T13:29:08;7.80;;;6.30;;
34204;SDS011;20471;49.680;20.074;2023-02-15T13:31:45;8.00;;;6.90;;
34204;SDS011;20471;49.680;20.074;2023-02-15T13:34:35;8.10;;;6.30;;
34204;SDS011;20471;49.680;20.074;2023-02-15T13:39:58;9.70;;;7.30;;
34204;SDS011;20471;49.680;20.074;2023-02-15T13:50:56;9.90;;;7.30;;
34204;SDS011;20471;49.680;20.074;2023-02-15T14:07:26;13.20;;;8.70;;
34204;SDS011;20471;49.680;20.074;2023-02-15T14:18:51;8.00;;;6.70;;
34204;SDS011;20471;49.680;20.074;2023-02-15T14:21:31;17.20;;;14.80;;
34204;SDS011;20471;49.680;20.074;2023-02-15T14:34:54;11.30;;;8.30;;
34204;SDS011;20471;49.680;20.074;2023-02-15T14:43:14;12.20;;;10.20;;
34204;SDS011;20471;49.680;20.074;2023-02-15T14:46:05;11.40;;;9.60;;
34204;SDS011;20471;49.680;20.074;2023-02-15T14:54:10;22.20;;;19.10;;
34204;SDS011;20471;49.680;20.074;2023-02-15T15:04:56;20.20;;;14.00;;
34204;SDS011;20471;49.680;20.074;2023-02-15T15:12:53;40.70;;;26.00;;
34204;SDS011;20471;49.680;20.074;2023-02-15T15:17:59;35.70;;;20.40;;
34204;SDS011;20471;49.680;20.074;2023-02-15T15:20:49;29.10;;;15.80;;
34204;SDS011;20471;49.680;20.074;2023-02-15T15:39:39;86.00;;;60.30;;
34204;SDS011;20471;49.680;20.074;2023-02-15T15:42:31;101.30;;;70.80;;
34204;SDS011;20471;49.680;20.074;2023-02-15T15:45:09;83.70;;;58.10;;
34204;SDS011;20471;49.680;20.074;2023-02-15T15:50:17;51.30;;;35.50;;
34204;SDS011;20471;49.680;20.074;2023-02-15T15:52:58;42.40;;;28.50;;
34204;SDS011;20471;49.680;20.074;2023-02-15T15:55:29;39.30;;;25.70;;
34204;SDS011;20471;49.680;20.074;2023-02-15T15:58:02;39.20;;;24.30;;
34204;SDS011;20471;49.680;20.074;2023-02-15T16:00:38;36.90;;;24.00;;
34204;SDS011;20471;49.680;20.074;2023-02-15T16:03:23;60.80;;;37.50;;
34204;SDS011;20471;49.680;20.074;2023-02-15T16:05:53;67.60;;;40.40;;
34204;SDS011;20471;49.680;20.074;2023-02-15T16:10:58;118.70;;;70.90;;
34204;SDS011;20471;49.680;20.074;2023-02-15T16:13:42;108.80;;;61.00;;
34204;SDS011;20471;49.680;20.074;2023-02-15T16:16:12;110.50;;;62.70;;
34204;SDS011;20471;49.680;20.074;2023-02-15T16:18:47;118.00;;;66.40;;
34204;SDS011;20471;49.680;20.074;2023-02-15T16:21:21;96.70;;;55.60;;
34204;SDS011;20471;49.680;20.074;2023-02-15T16:26:51;117.20;;;65.70;;
34204;SDS011;20471;49.680;20.074;2023-02-15T16:29:28;105.50;;;61.70;;
34204;SDS011;20471;49.680;20.074;2023-02-15T16:32:19;92.90;;;55.70;;
34204;SDS011;20471;49.680;20.074;2023-02-15T16:37:33;81.70;;;47.10;;
34204;SDS011;20471;49.680;20.074;2023-02-15T16:40:03;78.90;;;46.00;;
34204;SDS011;20471;49.680;20.074;2023-02-15T16:42:33;84.50;;;52.30;;
34204;SDS011;20471;49.680;20.074;2023-02-15T16:45:07;85.70;;;49.30;;
34204;SDS011;20471;49.680;20.074;2023-02-15T16:47:42;86.30;;;49.40;;
34204;SDS011;20471;49.680;20.074;2023-02-15T16:50:17;87.10;;;50.90;;
34204;SDS011;20471;49.680;20.074;2023-02-15T16:52:49;85.90;;;51.50;;
34204;SDS011;20471;49.680;20.074;2023-02-15T16:55:24;90.10;;;52.70;;
34204;SDS011;20471;49.680;20.074;2023-02-15T16:57:57;90.80;;;53.80;;
34204;SDS011;20471;49.680;20.074;2023-02-15T17:00:31;103.30;;;59.50;;
34204;SDS011;20471;49.680;20.074;2023-02-15T17:03:06;120.40;;;68.20;;
34204;SDS011;20471;49.680;20.074;2023-02-15T17:05:54;121.00;;;68.90;;
34204;SDS011;20471;49.680;20.074;2023-02-15T17:08:32;121.30;;;71.30;;
34204;SDS011;20471;49.680;20.074;2023-02-15T17:11:04;125.70;;;73.90;;
34204;SDS011;20471;49.680;20.074;2023-02-15T17:21:58;154.50;;;89.00;;
34204;SDS011;20471;49.680;20.074;2023-02-15T17:24:35;154.30;;;91.60;;
34204;SDS011;20471;49.680;20.074;2023-02-15T17:27:15;155.00;;;88.10;;
34204;SDS011;20471;49.680;20.074;2023-02-15T17:29:57;177.50;;;102.80;;
34204;SDS011;20471;49.680;20.074;2023-02-15T17:32:32;194.30;;;110.80;;
34204;SDS011;20471;49.680;20.074;2023-02-15T17:40:26;172.80;;;90.60;;
34204;SDS011;20471;49.680;20.074;2023-02-15T17:42:58;168.40;;;91.00;;
34204;SDS011;20471;49.680;20.074;2023-02-15T17:45:35;170.20;;;92.10;;
34204;SDS011;20471;49.680;20.074;2023-02-15T17:48:09;177.80;;;99.60;;
34204;SDS011;20471;49.680;20.074;2023-02-15T17:50:50;171.10;;;94.60;;
34204;SDS011;20471;49.680;20.074;2023-02-15T17:53:20;172.90;;;99.10;;
34204;SDS011;20471;49.680;20.074;2023-02-15T17:55:50;174.10;;;97.20;;
34204;SDS011;20471;49.680;20.074;2023-02-15T17:58:22;186.30;;;109.00;;
34204;SDS011;20471;49.680;20.074;2023-02-15T18:00:54;214.20;;;117.60;;
34204;SDS011;20471;49.680;20.074;2023-02-15T18:03:49;218.80;;;120.00;;
34204;SDS011;20471;49.680;20.074;2023-02-15T18:06:37;228.20;;;126.50;;
34204;SDS011;20471;49.680;20.074;2023-02-15T18:09:27;271.80;;;139.70;;
34204;SDS011;20471;49.680;20.074;2023-02-15T18:12:19;209.10;;;107.10;;
34204;SDS011;20471;49.680;20.074;2023-02-15T18:15:10;203.80;;;100.40;;
34204;SDS011;20471;49.680;20.074;2023-02-15T18:17:57;187.30;;;97.80;;
34204;SDS011;20471;49.680;20.074;2023-02-15T18:20:35;191.70;;;102.60;;
34204;SDS011;20471;49.680;20.074;2023-02-15T18:23:05;233.10;;;123.40;;
34204;SDS011;20471;49.680;20.074;2023-02-15T18:25:35;242.30;;;125.80;;
34204;SDS011;20471;49.680;20.074;2023-02-15T18:28:12;241.70;;;127.40;;
34204;SDS011;20471;49.680;20.074;2023-02-15T18:30:44;271.00;;;140.10;;
34204;SDS011;20471;49.680;20.074;2023-02-15T18:33:24;244.70;;;125.80;;
34204;SDS011;20471;49.680;20.074;2023-02-15T18:36:16;245.60;;;121.70;;
34204;SDS011;20471;49.680;20.074;2023-02-15T18:42:29;190.90;;;101.30;;
34204;SDS011;20471;49.680;20.074;2023-02-15T18:45:13;182.40;;;96.70;;
34204;SDS011;20471;49.680;20.074;2023-02-15T18:48:00;199.70;;;102.70;;
34204;SDS011;20471;49.680;20.074;2023-02-15T18:50:32;203.20;;;108.00;;
34204;SDS011;20471;49.680;20.074;2023-02-15T18:53:03;242.00;;;126.00;;